Alliston, Canada
Current Conditions -  °F | °C
As of 10:00 AM on Saturday 25 Oct 2014 (Local Time) from CYBN Reporting Station
Clear Clear  
Wind Chill: 57°   Ceiling: Unl
Heat Index: 57°   Visibility: 9mi
Dew Point: 48°   Wind: 14mph
Humidity: 72%   Direction: 220°SW
Pressure: 29.65"   Gusts: 20mph
Location:  44.15°N, 79.87°W
Report Text: CYBN 251400Z AUTO 22012G17KT 9SM CLR 14/09 A2965 RMK SLP045
Loading
Personal Weather Stations






























Interactive Weather Map
Tropical Storm Tracking
New forecast layout! Learn more

10-Day Weather Forecast

Advertisements
Track Severe Weather on mobile